sensor_id;sensor_type;location;lat;lon;timestamp;P1;durP1;ratioP1;P2;durP2;ratioP2
52838;SDS011;39219;53.678;9.856;2022-12-10T00:01:14;28.55;;;12.10;;
52838;SDS011;39219;53.678;9.856;2022-12-10T00:03:43;28.90;;;12.35;;
52838;SDS011;39219;53.678;9.856;2022-12-10T00:06:12;26.83;;;11.57;;
52838;SDS011;39219;53.678;9.856;2022-12-10T00:08:40;26.65;;;11.98;;
52838;SDS011;39219;53.678;9.856;2022-12-10T00:11:07;30.20;;;12.48;;
52838;SDS011;39219;53.678;9.856;2022-12-10T00:13:35;27.50;;;11.85;;
52838;SDS011;39219;53.678;9.856;2022-12-10T00:16:03;26.30;;;11.70;;
52838;SDS011;39219;53.678;9.856;2022-12-10T00:18:31;30.67;;;12.55;;
52838;SDS011;39219;53.678;9.856;2022-12-10T00:21:01;30.50;;;13.15;;
52838;SDS011;39219;53.678;9.856;2022-12-10T00:23:28;30.77;;;13.27;;
52838;SDS011;39219;53.678;9.856;2022-12-10T00:26:00;29.58;;;12.90;;
52838;SDS011;39219;53.678;9.856;2022-12-10T00:28:28;28.08;;;12.50;;
52838;SDS011;39219;53.678;9.856;2022-12-10T00:30:54;28.25;;;12.35;;
52838;SDS011;39219;53.678;9.856;2022-12-10T00:33:21;28.55;;;12.48;;
52838;SDS011;39219;53.678;9.856;2022-12-10T00:35:47;27.35;;;11.98;;
52838;SDS011;39219;53.678;9.856;2022-12-10T00:38:15;25.90;;;11.27;;
52838;SDS011;39219;53.678;9.856;2022-12-10T00:40:41;24.23;;;10.25;;
52838;SDS011;39219;53.678;9.856;2022-12-10T00:43:08;27.80;;;11.65;;
52838;SDS011;39219;53.678;9.856;2022-12-10T00:45:34;25.63;;;10.88;;
52838;SDS011;39219;53.678;9.856;2022-12-10T00:48:01;24.40;;;11.20;;
52838;SDS011;39219;53.678;9.856;2022-12-10T00:50:27;24.10;;;10.27;;
52838;SDS011;39219;53.678;9.856;2022-12-10T00:52:54;27.83;;;11.50;;
52838;SDS011;39219;53.678;9.856;2022-12-10T00:55:21;26.92;;;11.63;;
52838;SDS011;39219;53.678;9.856;2022-12-10T00:57:48;26.38;;;12.18;;
52838;SDS011;39219;53.678;9.856;2022-12-10T01:00:14;27.20;;;11.95;;
52838;SDS011;39219;53.678;9.856;2022-12-10T01:02:41;28.08;;;12.55;;
52838;SDS011;39219;53.678;9.856;2022-12-10T01:05:07;25.38;;;11.07;;
52838;SDS011;39219;53.678;9.856;2022-12-10T01:07:34;25.23;;;11.48;;
52838;SDS011;39219;53.678;9.856;2022-12-10T01:10:01;27.88;;;11.73;;
52838;SDS011;39219;53.678;9.856;2022-12-10T01:12:29;27.65;;;11.50;;
52838;SDS011;39219;53.678;9.856;2022-12-10T01:14:55;27.30;;;11.48;;
52838;SDS011;39219;53.678;9.856;2022-12-10T01:17:22;28.20;;;12.60;;
52838;SDS011;39219;53.678;9.856;2022-12-10T01:19:48;26.25;;;11.02;;
52838;SDS011;39219;53.678;9.856;2022-12-10T01:22:14;26.42;;;11.10;;
52838;SDS011;39219;53.678;9.856;2022-12-10T01:24:41;26.95;;;11.73;;
52838;SDS011;39219;53.678;9.856;2022-12-10T01:27:08;31.05;;;12.98;;
52838;SDS011;39219;53.678;9.856;2022-12-10T01:29:35;34.53;;;14.00;;
52838;SDS011;39219;53.678;9.856;2022-12-10T01:32:02;34.50;;;13.65;;
52838;SDS011;39219;53.678;9.856;2022-12-10T01:34:29;37.65;;;14.80;;
52838;SDS011;39219;53.678;9.856;2022-12-10T01:36:55;38.05;;;15.30;;
52838;SDS011;39219;53.678;9.856;2022-12-10T01:39:22;38.50;;;15.20;;
52838;SDS011;39219;53.678;9.856;2022-12-10T01:41:50;41.67;;;15.95;;
52838;SDS011;39219;53.678;9.856;2022-12-10T01:47:25;37.22;;;14.45;;
52838;SDS011;39219;53.678;9.856;2022-12-10T01:49:52;40.20;;;15.68;;
52838;SDS011;39219;53.678;9.856;2022-12-10T01:52:18;42.35;;;16.35;;
52838;SDS011;39219;53.678;9.856;2022-12-10T01:54:45;47.40;;;16.73;;
52838;SDS011;39219;53.678;9.856;2022-12-10T01:57:13;43.55;;;15.88;;
52838;SDS011;39219;53.678;9.856;2022-12-10T01:59:43;37.72;;;14.40;;
52838;SDS011;39219;53.678;9.856;2022-12-10T02:02:13;46.78;;;16.77;;
52838;SDS011;39219;53.678;9.856;2022-12-10T02:04:50;39.65;;;15.07;;
52838;SDS011;39219;53.678;9.856;2022-12-10T02:07:26;40.05;;;15.80;;
52838;SDS011;39219;53.678;9.856;2022-12-10T02:10:02;40.70;;;14.45;;
52838;SDS011;39219;53.678;9.856;2022-12-10T02:12:33;36.83;;;14.05;;
52838;SDS011;39219;53.678;9.856;2022-12-10T02:15:09;37.13;;;14.05;;
52838;SDS011;39219;53.678;9.856;2022-12-10T02:17:41;36.90;;;13.52;;
52838;SDS011;39219;53.678;9.856;2022-12-10T02:20:10;36.13;;;13.70;;
52838;SDS011;39219;53.678;9.856;2022-12-10T02:22:42;37.25;;;13.60;;
52838;SDS011;39219;53.678;9.856;2022-12-10T02:25:12;38.13;;;14.35;;
52838;SDS011;39219;53.678;9.856;2022-12-10T02:27:43;35.90;;;14.48;;
52838;SDS011;39219;53.678;9.856;2022-12-10T02:30:15;34.25;;;13.50;;
52838;SDS011;39219;53.678;9.856;2022-12-10T02:32:42;32.92;;;12.63;;
52838;SDS011;39219;53.678;9.856;2022-12-10T02:35:11;39.42;;;14.15;;
52838;SDS011;39219;53.678;9.856;2022-12-10T02:37:42;32.08;;;12.25;;
52838;SDS011;39219;53.678;9.856;2022-12-10T02:40:14;31.63;;;13.20;;
52838;SDS011;39219;53.678;9.856;2022-12-10T02:42:46;38.45;;;14.57;;
52838;SDS011;39219;53.678;9.856;2022-12-10T02:45:16;41.30;;;15.15;;
52838;SDS011;39219;53.678;9.856;2022-12-10T02:47:44;39.85;;;15.38;;
52838;SDS011;39219;53.678;9.856;2022-12-10T02:50:10;38.65;;;14.73;;
52838;SDS011;39219;53.678;9.856;2022-12-10T02:52:38;38.22;;;14.98;;
52838;SDS011;39219;53.678;9.856;2022-12-10T02:55:05;40.80;;;14.80;;
52838;SDS011;39219;53.678;9.856;2022-12-10T02:57:34;40.03;;;15.50;;
52838;SDS011;39219;53.678;9.856;2022-12-10T03:00:05;37.38;;;14.18;;
52838;SDS011;39219;53.678;9.856;2022-12-10T03:02:39;36.28;;;14.35;;
52838;SDS011;39219;53.678;9.856;2022-12-10T03:05:14;33.38;;;14.45;;
52838;SDS011;39219;53.678;9.856;2022-12-10T03:07:47;35.97;;;13.82;;
52838;SDS011;39219;53.678;9.856;2022-12-10T03:10:21;31.65;;;13.13;;
52838;SDS011;39219;53.678;9.856;2022-12-10T03:12:54;34.22;;;13.60;;
52838;SDS011;39219;53.678;9.856;2022-12-10T03:15:24;29.90;;;13.30;;
52838;SDS011;39219;53.678;9.856;2022-12-10T03:17:53;29.75;;;12.07;;
52838;SDS011;39219;53.678;9.856;2022-12-10T03:20:21;23.23;;;9.73;;
52838;SDS011;39219;53.678;9.856;2022-12-10T03:22:50;23.33;;;9.25;;
52838;SDS011;39219;53.678;9.856;2022-12-10T03:25:20;22.38;;;9.48;;
52838;SDS011;39219;53.678;9.856;2022-12-10T03:27:50;27.80;;;11.70;;
52838;SDS011;39219;53.678;9.856;2022-12-10T03:30:19;25.65;;;10.70;;
52838;SDS011;39219;53.678;9.856;2022-12-10T03:32:46;28.30;;;11.98;;
52838;SDS011;39219;53.678;9.856;2022-12-10T03:35:14;26.38;;;11.45;;
52838;SDS011;39219;53.678;9.856;2022-12-10T03:37:43;30.10;;;12.43;;
52838;SDS011;39219;53.678;9.856;2022-12-10T03:40:10;27.60;;;11.23;;
52838;SDS011;39219;53.678;9.856;2022-12-10T03:42:38;25.88;;;10.75;;
52838;SDS011;39219;53.678;9.856;2022-12-10T03:45:06;23.98;;;11.32;;
52838;SDS011;39219;53.678;9.856;2022-12-10T03:47:33;28.45;;;12.10;;
52838;SDS011;39219;53.678;9.856;2022-12-10T03:49:59;25.33;;;11.18;;
52838;SDS011;39219;53.678;9.856;2022-12-10T03:52:27;22.55;;;10.00;;
52838;SDS011;39219;53.678;9.856;2022-12-10T03:54:53;24.88;;;9.70;;
52838;SDS011;39219;53.678;9.856;2022-12-10T03:57:20;24.80;;;10.35;;
52838;SDS011;39219;53.678;9.856;2022-12-10T03:59:46;25.10;;;11.05;;
52838;SDS011;39219;53.678;9.856;2022-12-10T04:02:13;26.17;;;11.13;;
52838;SDS011;39219;53.678;9.856;2022-12-10T04:04:39;26.55;;;12.25;;
52838;SDS011;39219;53.678;9.856;2022-12-10T04:07:06;26.10;;;11.30;;
52838;SDS011;39219;53.678;9.856;2022-12-10T04:09:34;26.50;;;11.73;;
52838;SDS011;39219;53.678;9.856;2022-12-10T04:12:00;26.55;;;11.70;;
52838;SDS011;39219;53.678;9.856;2022-12-10T04:14:27;24.02;;;10.10;;
52838;SDS011;39219;53.678;9.856;2022-12-10T04:17:11;21.48;;;9.63;;
52838;SDS011;39219;53.678;9.856;2022-12-10T04:19:38;24.35;;;10.23;;
52838;SDS011;39219;53.678;9.856;2022-12-10T04:22:04;21.58;;;9.20;;
52838;SDS011;39219;53.678;9.856;2022-12-10T04:24:50;23.10;;;9.70;;
52838;SDS011;39219;53.678;9.856;2022-12-10T04:27:36;23.23;;;9.85;;
52838;SDS011;39219;53.678;9.856;2022-12-10T04:30:05;22.77;;;10.73;;
52838;SDS011;39219;53.678;9.856;2022-12-10T04:32:34;26.55;;;11.40;;
52838;SDS011;39219;53.678;9.856;2022-12-10T04:35:01;23.73;;;10.35;;
52838;SDS011;39219;53.678;9.856;2022-12-10T04:37:27;25.23;;;10.07;;
52838;SDS011;39219;53.678;9.856;2022-12-10T04:39:55;21.13;;;9.82;;
52838;SDS011;39219;53.678;9.856;2022-12-10T04:42:22;21.60;;;9.65;;
52838;SDS011;39219;53.678;9.856;2022-12-10T04:44:48;21.63;;;9.90;;
52838;SDS011;39219;53.678;9.856;2022-12-10T04:47:15;22.30;;;9.63;;
52838;SDS011;39219;53.678;9.856;2022-12-10T04:49:41;24.85;;;10.85;;
52838;SDS011;39219;53.678;9.856;2022-12-10T04:52:09;18.95;;;9.07;;
52838;SDS011;39219;53.678;9.856;2022-12-10T04:54:37;22.38;;;10.05;;
52838;SDS011;39219;53.678;9.856;2022-12-10T04:57:05;20.17;;;10.00;;
52838;SDS011;39219;53.678;9.856;2022-12-10T04:59:32;22.60;;;10.38;;
52838;SDS011;39219;53.678;9.856;2022-12-10T05:01:58;22.98;;;10.85;;
52838;SDS011;39219;53.678;9.856;2022-12-10T05:04:25;24.02;;;11.15;;
52838;SDS011;39219;53.678;9.856;2022-12-10T05:06:51;23.73;;;11.05;;
52838;SDS011;39219;53.678;9.856;2022-12-10T05:09:18;20.40;;;9.05;;
52838;SDS011;39219;53.678;9.856;2022-12-10T05:11:44;22.50;;;10.00;;
52838;SDS011;39219;53.678;9.856;2022-12-10T05:14:12;20.75;;;10.07;;
52838;SDS011;39219;53.678;9.856;2022-12-10T05:16:40;21.90;;;9.82;;
52838;SDS011;39219;53.678;9.856;2022-12-10T05:19:08;23.08;;;10.23;;
52838;SDS011;39219;53.678;9.856;2022-12-10T05:21:35;22.05;;;9.73;;
52838;SDS011;39219;53.678;9.856;2022-12-10T05:24:21;23.77;;;10.70;;
52838;SDS011;39219;53.678;9.856;2022-12-10T05:26:48;22.40;;;10.15;;
52838;SDS011;39219;53.678;9.856;2022-12-10T05:29:17;20.27;;;9.57;;
52838;SDS011;39219;53.678;9.856;2022-12-10T05:31:44;21.90;;;10.63;;
52838;SDS011;39219;53.678;9.856;2022-12-10T05:34:11;22.70;;;9.73;;
52838;SDS011;39219;53.678;9.856;2022-12-10T05:36:38;22.10;;;10.02;;
52838;SDS011;39219;53.678;9.856;2022-12-10T05:39:04;23.52;;;10.52;;
52838;SDS011;39219;53.678;9.856;2022-12-10T05:41:33;22.75;;;10.13;;
52838;SDS011;39219;53.678;9.856;2022-12-10T05:44:01;20.15;;;9.23;;
52838;SDS011;39219;53.678;9.856;2022-12-10T05:46:31;23.15;;;10.18;;
52838;SDS011;39219;53.678;9.856;2022-12-10T05:48:58;21.15;;;10.25;;
52838;SDS011;39219;53.678;9.856;2022-12-10T05:51:26;21.67;;;9.90;;
52838;SDS011;39219;53.678;9.856;2022-12-10T05:53:55;21.45;;;9.88;;
52838;SDS011;39219;53.678;9.856;2022-12-10T05:56:24;19.67;;;10.60;;
52838;SDS011;39219;53.678;9.856;2022-12-10T05:58:52;23.98;;;10.77;;
52838;SDS011;39219;53.678;9.856;2022-12-10T06:01:21;22.80;;;11.00;;
52838;SDS011;39219;53.678;9.856;2022-12-10T06:03:50;25.65;;;11.75;;
52838;SDS011;39219;53.678;9.856;2022-12-10T06:06:19;24.10;;;11.55;;
52838;SDS011;39219;53.678;9.856;2022-12-10T06:08:46;24.70;;;12.02;;
52838;SDS011;39219;53.678;9.856;2022-12-10T06:11:13;23.55;;;11.43;;
52838;SDS011;39219;53.678;9.856;2022-12-10T06:13:39;19.58;;;10.50;;
52838;SDS011;39219;53.678;9.856;2022-12-10T06:16:06;23.15;;;10.93;;
52838;SDS011;39219;53.678;9.856;2022-12-10T06:18:34;20.85;;;10.32;;
52838;SDS011;39219;53.678;9.856;2022-12-10T06:21:03;20.95;;;9.80;;
52838;SDS011;39219;53.678;9.856;2022-12-10T06:23:30;21.30;;;10.00;;
52838;SDS011;39219;53.678;9.856;2022-12-10T06:25:57;19.92;;;9.55;;
52838;SDS011;39219;53.678;9.856;2022-12-10T06:28:23;21.83;;;10.30;;
52838;SDS011;39219;53.678;9.856;2022-12-10T06:30:50;22.50;;;10.52;;
52838;SDS011;39219;53.678;9.856;2022-12-10T06:33:16;20.60;;;10.85;;
52838;SDS011;39219;53.678;9.856;2022-12-10T06:35:43;22.13;;;9.98;;
52838;SDS011;39219;53.678;9.856;2022-12-10T06:38:10;18.85;;;9.23;;
52838;SDS011;39219;53.678;9.856;2022-12-10T06:40:38;18.75;;;9.73;;
52838;SDS011;39219;53.678;9.856;2022-12-10T06:43:05;24.35;;;10.43;;
52838;SDS011;39219;53.678;9.856;2022-12-10T06:45:31;22.13;;;10.55;;
52838;SDS011;39219;53.678;9.856;2022-12-10T06:47:58;22.30;;;10.95;;
52838;SDS011;39219;53.678;9.856;2022-12-10T06:50:24;21.98;;;9.80;;
52838;SDS011;39219;53.678;9.856;2022-12-10T06:52:51;20.30;;;9.88;;
52838;SDS011;39219;53.678;9.856;2022-12-10T06:55:18;19.67;;;9.38;;
52838;SDS011;39219;53.678;9.856;2022-12-10T06:57:45;21.88;;;9.82;;
52838;SDS011;39219;53.678;9.856;2022-12-10T07:00:12;20.92;;;9.95;;
52838;SDS011;39219;53.678;9.856;2022-12-10T07:02:39;22.48;;;9.77;;
52838;SDS011;39219;53.678;9.856;2022-12-10T07:05:06;22.83;;;10.23;;
52838;SDS011;39219;53.678;9.856;2022-12-10T07:07:33;21.67;;;10.10;;
52838;SDS011;39219;53.678;9.856;2022-12-10T07:10:01;20.98;;;9.63;;
52838;SDS011;39219;53.678;9.856;2022-12-10T07:12:29;21.95;;;10.57;;
52838;SDS011;39219;53.678;9.856;2022-12-10T07:14:55;20.17;;;9.63;;
52838;SDS011;39219;53.678;9.856;2022-12-10T07:17:21;21.70;;;10.20;;
52838;SDS011;39219;53.678;9.856;2022-12-10T07:19:48;23.85;;;10.27;;
52838;SDS011;39219;53.678;9.856;2022-12-10T07:22:14;22.75;;;10.45;;
52838;SDS011;39219;53.678;9.856;2022-12-10T07:24:41;24.48;;;11.27;;
52838;SDS011;39219;53.678;9.856;2022-12-10T07:27:08;24.80;;;11.55;;
52838;SDS011;39219;53.678;9.856;2022-12-10T07:29:36;22.85;;;10.70;;
52838;SDS011;39219;53.678;9.856;2022-12-10T07:32:02;22.65;;;10.77;;
52838;SDS011;39219;53.678;9.856;2022-12-10T07:34:29;22.15;;;10.45;;
52838;SDS011;39219;53.678;9.856;2022-12-10T07:36:55;24.65;;;10.93;;
52838;SDS011;39219;53.678;9.856;2022-12-10T07:39:22;24.05;;;11.45;;
52838;SDS011;39219;53.678;9.856;2022-12-10T07:41:48;24.05;;;10.45;;
52838;SDS011;39219;53.678;9.856;2022-12-10T07:44:17;24.00;;;11.20;;
52838;SDS011;39219;53.678;9.856;2022-12-10T07:46:47;22.10;;;10.75;;
52838;SDS011;39219;53.678;9.856;2022-12-10T07:49:14;23.48;;;11.35;;
52838;SDS011;39219;53.678;9.856;2022-12-10T07:51:43;24.05;;;11.32;;
52838;SDS011;39219;53.678;9.856;2022-12-10T07:54:10;24.33;;;10.98;;
52838;SDS011;39219;53.678;9.856;2022-12-10T07:56:36;24.67;;;11.77;;
52838;SDS011;39219;53.678;9.856;2022-12-10T07:59:03;24.98;;;10.57;;
52838;SDS011;39219;53.678;9.856;2022-12-10T08:01:29;21.88;;;10.15;;
52838;SDS011;39219;53.678;9.856;2022-12-10T08:03:57;22.15;;;10.93;;
52838;SDS011;39219;53.678;9.856;2022-12-10T08:06:24;23.00;;;10.75;;
52838;SDS011;39219;53.678;9.856;2022-12-10T08:08:51;21.15;;;10.32;;
52838;SDS011;39219;53.678;9.856;2022-12-10T08:11:19;22.63;;;11.20;;
52838;SDS011;39219;53.678;9.856;2022-12-10T08:13:47;24.58;;;10.90;;
52838;SDS011;39219;53.678;9.856;2022-12-10T08:16:14;23.75;;;10.80;;
52838;SDS011;39219;53.678;9.856;2022-12-10T08:18:42;23.95;;;10.98;;
52838;SDS011;39219;53.678;9.856;2022-12-10T08:21:11;23.60;;;11.10;;
52838;SDS011;39219;53.678;9.856;2022-12-10T08:23:39;23.75;;;11.00;;
52838;SDS011;39219;53.678;9.856;2022-12-10T08:26:07;25.45;;;11.23;;
52838;SDS011;39219;53.678;9.856;2022-12-10T08:28:35;23.55;;;11.23;;
52838;SDS011;39219;53.678;9.856;2022-12-10T08:31:02;23.35;;;10.77;;
52838;SDS011;39219;53.678;9.856;2022-12-10T08:33:29;23.10;;;11.00;;
52838;SDS011;39219;53.678;9.856;2022-12-10T08:35:58;23.17;;;11.18;;
52838;SDS011;39219;53.678;9.856;2022-12-10T08:38:26;23.17;;;11.13;;
52838;SDS011;39219;53.678;9.856;2022-12-10T08:40:53;25.55;;;11.85;;
52838;SDS011;39219;53.678;9.856;2022-12-10T08:43:20;25.45;;;11.55;;
52838;SDS011;39219;53.678;9.856;2022-12-10T08:45:46;26.30;;;11.68;;
52838;SDS011;39219;53.678;9.856;2022-12-10T08:48:13;24.10;;;11.40;;
52838;SDS011;39219;53.678;9.856;2022-12-10T08:50:39;24.73;;;11.27;;
52838;SDS011;39219;53.678;9.856;2022-12-10T08:53:06;23.83;;;11.48;;
52838;SDS011;39219;53.678;9.856;2022-12-10T08:55:37;28.10;;;12.23;;
52838;SDS011;39219;53.678;9.856;2022-12-10T08:58:04;21.65;;;10.50;;
52838;SDS011;39219;53.678;9.856;2022-12-10T09:00:30;21.88;;;10.40;;
52838;SDS011;39219;53.678;9.856;2022-12-10T09:02:57;26.65;;;12.48;;
52838;SDS011;39219;53.678;9.856;2022-12-10T09:05:24;22.80;;;10.77;;
52838;SDS011;39219;53.678;9.856;2022-12-10T09:07:50;22.48;;;11.10;;
52838;SDS011;39219;53.678;9.856;2022-12-10T09:10:17;22.98;;;10.95;;
52838;SDS011;39219;53.678;9.856;2022-12-10T09:12:45;24.25;;;11.07;;
52838;SDS011;39219;53.678;9.856;2022-12-10T09:15:11;22.08;;;10.43;;
52838;SDS011;39219;53.678;9.856;2022-12-10T09:17:37;19.95;;;9.98;;
52838;SDS011;39219;53.678;9.856;2022-12-10T09:20:04;21.08;;;10.20;;
52838;SDS011;39219;53.678;9.856;2022-12-10T09:22:31;23.73;;;10.65;;
52838;SDS011;39219;53.678;9.856;2022-12-10T09:25:01;21.85;;;10.93;;
52838;SDS011;39219;53.678;9.856;2022-12-10T09:27:29;24.98;;;10.82;;
52838;SDS011;39219;53.678;9.856;2022-12-10T09:29:57;22.52;;;10.50;;
52838;SDS011;39219;53.678;9.856;2022-12-10T09:32:23;21.45;;;10.40;;
52838;SDS011;39219;53.678;9.856;2022-12-10T09:34:50;18.25;;;9.45;;
52838;SDS011;39219;53.678;9.856;2022-12-10T09:37:17;17.85;;;9.27;;
52838;SDS011;39219;53.678;9.856;2022-12-10T09:39:43;20.60;;;9.68;;
52838;SDS011;39219;53.678;9.856;2022-12-10T09:42:22;19.83;;;9.25;;
52838;SDS011;39219;53.678;9.856;2022-12-10T09:45:02;20.25;;;9.93;;
52838;SDS011;39219;53.678;9.856;2022-12-10T09:47:40;19.38;;;9.23;;
52838;SDS011;39219;53.678;9.856;2022-12-10T09:50:16;18.85;;;9.00;;
52838;SDS011;39219;53.678;9.856;2022-12-10T09:52:46;21.17;;;9.63;;
52838;SDS011;39219;53.678;9.856;2022-12-10T09:55:16;23.65;;;10.10;;
52838;SDS011;39219;53.678;9.856;2022-12-10T09:57:46;21.92;;;9.68;;
52838;SDS011;39219;53.678;9.856;2022-12-10T10:00:23;22.10;;;9.93;;
52838;SDS011;39219;53.678;9.856;2022-12-10T10:02:55;21.55;;;10.23;;
52838;SDS011;39219;53.678;9.856;2022-12-10T10:05:25;19.85;;;9.85;;
52838;SDS011;39219;53.678;9.856;2022-12-10T10:07:54;21.45;;;10.18;;
52838;SDS011;39219;53.678;9.856;2022-12-10T10:10:24;20.00;;;9.88;;
52838;SDS011;39219;53.678;9.856;2022-12-10T10:12:52;21.98;;;10.32;;
52838;SDS011;39219;53.678;9.856;2022-12-10T10:15:24;21.52;;;9.65;;
52838;SDS011;39219;53.678;9.856;2022-12-10T10:17:55;21.48;;;10.10;;
52838;SDS011;39219;53.678;9.856;2022-12-10T10:20:24;21.83;;;10.13;;
52838;SDS011;39219;53.678;9.856;2022-12-10T10:22:51;22.20;;;9.55;;
52838;SDS011;39219;53.678;9.856;2022-12-10T10:25:21;20.75;;;10.20;;
52838;SDS011;39219;53.678;9.856;2022-12-10T10:27:47;21.20;;;10.65;;
52838;SDS011;39219;53.678;9.856;2022-12-10T10:30:14;23.02;;;10.70;;
52838;SDS011;39219;53.678;9.856;2022-12-10T10:32:50;22.52;;;10.00;;
52838;SDS011;39219;53.678;9.856;2022-12-10T10:35:25;22.60;;;10.13;;
52838;SDS011;39219;53.678;9.856;2022-12-10T10:38:01;24.10;;;10.68;;
52838;SDS011;39219;53.678;9.856;2022-12-10T10:40:32;23.58;;;10.05;;
52838;SDS011;39219;53.678;9.856;2022-12-10T10:43:05;21.90;;;9.98;;
52838;SDS011;39219;53.678;9.856;2022-12-10T10:45:33;24.75;;;11.30;;
52838;SDS011;39219;53.678;9.856;2022-12-10T10:48:08;24.35;;;10.10;;
52838;SDS011;39219;53.678;9.856;2022-12-10T10:50:37;22.13;;;9.70;;
52838;SDS011;39219;53.678;9.856;2022-12-10T10:53:21;23.20;;;10.38;;
52838;SDS011;39219;53.678;9.856;2022-12-10T10:55:49;26.92;;;11.15;;
52838;SDS011;39219;53.678;9.856;2022-12-10T10:58:17;23.65;;;10.93;;
52838;SDS011;39219;53.678;9.856;2022-12-10T11:00:52;23.17;;;10.32;;
52838;SDS011;39219;53.678;9.856;2022-12-10T11:03:25;23.95;;;10.82;;
52838;SDS011;39219;53.678;9.856;2022-12-10T11:05:53;24.02;;;10.00;;
52838;SDS011;39219;53.678;9.856;2022-12-10T11:08:20;21.00;;;9.55;;
52838;SDS011;39219;53.678;9.856;2022-12-10T11:10:50;21.65;;;10.40;;
52838;SDS011;39219;53.678;9.856;2022-12-10T11:13:22;20.92;;;9.55;;
52838;SDS011;39219;53.678;9.856;2022-12-10T11:15:56;19.35;;;9.15;;
52838;SDS011;39219;53.678;9.856;2022-12-10T11:18:29;17.40;;;8.27;;
52838;SDS011;39219;53.678;9.856;2022-12-10T11:20:58;20.15;;;9.07;;
52838;SDS011;39219;53.678;9.856;2022-12-10T11:23:27;19.35;;;9.40;;
52838;SDS011;39219;53.678;9.856;2022-12-10T11:25:56;21.48;;;9.25;;
52838;SDS011;39219;53.678;9.856;2022-12-10T11:28:36;20.13;;;9.60;;
52838;SDS011;39219;53.678;9.856;2022-12-10T11:31:18;22.60;;;9.90;;
52838;SDS011;39219;53.678;9.856;2022-12-10T11:34:05;20.58;;;9.75;;
52838;SDS011;39219;53.678;9.856;2022-12-10T11:36:41;22.13;;;10.65;;
52838;SDS011;39219;53.678;9.856;2022-12-10T11:39:19;23.23;;;10.77;;
52838;SDS011;39219;53.678;9.856;2022-12-10T11:41:59;23.33;;;10.45;;
52838;SDS011;39219;53.678;9.856;2022-12-10T11:44:33;24.85;;;9.63;;
52838;SDS011;39219;53.678;9.856;2022-12-10T11:47:09;23.02;;;10.43;;
52838;SDS011;39219;53.678;9.856;2022-12-10T11:49:56;20.00;;;9.55;;
52838;SDS011;39219;53.678;9.856;2022-12-10T11:52:39;22.60;;;9.70;;
52838;SDS011;39219;53.678;9.856;2022-12-10T11:55:13;20.38;;;9.23;;
52838;SDS011;39219;53.678;9.856;2022-12-10T11:57:52;21.73;;;9.43;;
52838;SDS011;39219;53.678;9.856;2022-12-10T12:00:37;18.90;;;9.10;;
52838;SDS011;39219;53.678;9.856;2022-12-10T12:03:24;18.50;;;8.90;;
52838;SDS011;39219;53.678;9.856;2022-12-10T12:06:06;18.00;;;8.90;;
52838;SDS011;39219;53.678;9.856;2022-12-10T12:08:49;18.40;;;8.73;;
52838;SDS011;39219;53.678;9.856;2022-12-10T12:11:39;18.48;;;8.52;;
52838;SDS011;39219;53.678;9.856;2022-12-10T12:14:19;16.65;;;7.80;;
52838;SDS011;39219;53.678;9.856;2022-12-10T12:16:51;18.17;;;8.88;;
52838;SDS011;39219;53.678;9.856;2022-12-10T12:19:25;17.33;;;8.60;;
52838;SDS011;39219;53.678;9.856;2022-12-10T12:21:59;18.83;;;8.55;;
52838;SDS011;39219;53.678;9.856;2022-12-10T12:24:29;16.85;;;8.13;;
52838;SDS011;39219;53.678;9.856;2022-12-10T12:27:00;20.52;;;9.15;;
52838;SDS011;39219;53.678;9.856;2022-12-10T12:29:34;18.40;;;8.88;;
52838;SDS011;39219;53.678;9.856;2022-12-10T12:32:09;18.50;;;9.15;;
52838;SDS011;39219;53.678;9.856;2022-12-10T12:34:44;19.67;;;9.23;;
52838;SDS011;39219;53.678;9.856;2022-12-10T12:37:17;19.67;;;9.02;;
52838;SDS011;39219;53.678;9.856;2022-12-10T12:39:50;20.17;;;9.60;;
52838;SDS011;39219;53.678;9.856;2022-12-10T12:42:27;19.80;;;9.18;;
52838;SDS011;39219;53.678;9.856;2022-12-10T12:45:00;17.52;;;8.77;;
52838;SDS011;39219;53.678;9.856;2022-12-10T12:47:30;21.50;;;9.50;;
52838;SDS011;39219;53.678;9.856;2022-12-10T12:50:10;18.60;;;9.05;;
52838;SDS011;39219;53.678;9.856;2022-12-10T12:52:48;19.30;;;9.10;;
52838;SDS011;39219;53.678;9.856;2022-12-10T12:55:20;20.30;;;9.82;;
52838;SDS011;39219;53.678;9.856;2022-12-10T12:57:53;19.67;;;9.57;;
52838;SDS011;39219;53.678;9.856;2022-12-10T13:00:29;20.55;;;10.10;;
52838;SDS011;39219;53.678;9.856;2022-12-10T13:03:05;21.30;;;9.77;;
52838;SDS011;39219;53.678;9.856;2022-12-10T13:05:43;20.63;;;10.27;;
52838;SDS011;39219;53.678;9.856;2022-12-10T13:08:24;19.08;;;9.30;;
52838;SDS011;39219;53.678;9.856;2022-12-10T13:10:56;22.80;;;10.70;;
52838;SDS011;39219;53.678;9.856;2022-12-10T13:13:29;21.00;;;9.85;;
52838;SDS011;39219;53.678;9.856;2022-12-10T13:21:59;24.20;;;10.55;;
52838;SDS011;39219;53.678;9.856;2022-12-10T13:27:15;19.58;;;10.43;;
52838;SDS011;39219;53.678;9.856;2022-12-10T13:29:45;22.48;;;10.70;;
52838;SDS011;39219;53.678;9.856;2022-12-10T13:32:20;20.02;;;9.57;;
52838;SDS011;39219;53.678;9.856;2022-12-10T13:34:53;18.95;;;9.93;;
52838;SDS011;39219;53.678;9.856;2022-12-10T13:38:03;20.67;;;9.98;;
52838;SDS011;39219;53.678;9.856;2022-12-10T13:40:39;21.25;;;10.13;;
52838;SDS011;39219;53.678;9.856;2022-12-10T13:43:24;21.33;;;10.55;;
52838;SDS011;39219;53.678;9.856;2022-12-10T13:46:20;18.85;;;9.45;;
52838;SDS011;39219;53.678;9.856;2022-12-10T13:48:49;21.00;;;10.30;;
52838;SDS011;39219;53.678;9.856;2022-12-10T13:51:26;20.35;;;9.95;;
52838;SDS011;39219;53.678;9.856;2022-12-10T13:54:09;21.08;;;10.13;;
52838;SDS011;39219;53.678;9.856;2022-12-10T13:56:55;23.25;;;11.13;;
52838;SDS011;39219;53.678;9.856;2022-12-10T13:59:33;22.00;;;10.52;;
52838;SDS011;39219;53.678;9.856;2022-12-10T14:02:17;21.95;;;10.80;;
52838;SDS011;39219;53.678;9.856;2022-12-10T14:05:00;20.23;;;9.82;;
52838;SDS011;39219;53.678;9.856;2022-12-10T14:07:38;20.98;;;10.57;;
52838;SDS011;39219;53.678;9.856;2022-12-10T14:10:07;22.25;;;11.20;;
52838;SDS011;39219;53.678;9.856;2022-12-10T14:12:42;24.65;;;11.18;;
52838;SDS011;39219;53.678;9.856;2022-12-10T14:15:14;23.38;;;11.57;;
52838;SDS011;39219;53.678;9.856;2022-12-10T14:17:44;22.38;;;11.07;;
52838;SDS011;39219;53.678;9.856;2022-12-10T14:20:13;21.27;;;11.18;;
52838;SDS011;39219;53.678;9.856;2022-12-10T14:22:45;21.92;;;11.40;;
52838;SDS011;39219;53.678;9.856;2022-12-10T14:25:13;22.38;;;10.25;;
52838;SDS011;39219;53.678;9.856;2022-12-10T14:27:44;23.08;;;11.13;;
52838;SDS011;39219;53.678;9.856;2022-12-10T14:30:15;22.60;;;11.57;;
52838;SDS011;39219;53.678;9.856;2022-12-10T14:32:42;22.77;;;10.80;;
52838;SDS011;39219;53.678;9.856;2022-12-10T14:35:12;22.30;;;10.70;;
52838;SDS011;39219;53.678;9.856;2022-12-10T14:37:40;19.73;;;10.13;;
52838;SDS011;39219;53.678;9.856;2022-12-10T14:40:08;22.08;;;11.77;;
52838;SDS011;39219;53.678;9.856;2022-12-10T14:42:45;22.23;;;11.45;;
52838;SDS011;39219;53.678;9.856;2022-12-10T14:45:12;21.95;;;11.38;;
52838;SDS011;39219;53.678;9.856;2022-12-10T14:47:41;23.35;;;10.93;;
52838;SDS011;39219;53.678;9.856;2022-12-10T14:50:09;22.27;;;10.63;;
52838;SDS011;39219;53.678;9.856;2022-12-10T14:52:39;21.58;;;10.57;;
52838;SDS011;39219;53.678;9.856;2022-12-10T14:55:11;20.38;;;11.07;;